Time;durP1;ratioP1;P1;durP2;ratioP2;P2;SDS_P1;SDS_P2;PMS_P1;PMS_P2;Temp;Humidity;BMP_temperature;BMP_pressure;BME280_temperature;BME280_humidity;BME280_pressure;Samples;Min_cycle;Max_cycle;Signal;HPM_P1;HPM_P2
2022/11/11 00:01:25;;;;;;;;;8.00;7.33;;;;;;;;5039816;28;45536;-73
2022/11/11 00:03:53;;;;;;;;;10.33;8.00;;;;;;;;5031305;28;45339;-74
2022/11/11 00:06:18;;;;;;;;;8.33;7.00;;;;;;;;5018916;28;45519;-74
2022/11/11 00:08:45;;;;;;;;;10.67;9.33;;;;;;;;5021986;28;45454;-73
2022/11/11 00:11:12;;;;;;;;;10.00;8.00;;;;;;;;5038434;28;47070;-73
2022/11/11 00:13:38;;;;;;;;;7.00;7.00;;;;;;;;5039201;28;45857;-79
2022/11/11 00:16:04;;;;;;;;;12.00;9.00;;;;;;;;5041065;28;45468;-79
2022/11/11 00:25:04;;;;;;;;;10.67;9.67;;;;;;;;5026947;28;45406;-79
2022/11/11 00:27:12;;;;;;;;;11.33;8.00;;;;;;;;5046402;28;45458;-80
2022/11/11 00:29:38;;;;;;;;;8.00;8.00;;;;;;;;5039424;28;45427;-80
2022/11/11 00:32:21;;;;;;;;;8.00;7.00;;;;;;;;5038822;28;46178;-79
2022/11/11 00:37:32;;;;;;;;;9.33;8.00;;;;;;;;5028284;28;45433;-79
2022/11/11 00:39:57;;;;;;;;;8.67;6.33;;;;;;;;5038939;28;45496;-79
2022/11/11 00:42:22;;;;;;;;;4.33;3.33;;;;;;;;5038646;28;47149;-79
2022/11/11 00:44:47;;;;;;;;;8.33;7.33;;;;;;;;5038890;28;45319;-79
2022/11/11 00:52:40;;;;;;;;;10.00;9.00;;;;;;;;5040332;28;45396;-79
2022/11/11 00:55:06;;;;;;;;;14.33;7.67;;;;;;;;5039250;28;45544;-76
2022/11/11 00:57:31;;;;;;;;;7.67;7.67;;;;;;;;5038643;28;45361;-79
2022/11/11 00:59:56;;;;;;;;;8.67;8.67;;;;;;;;5038064;28;45413;-79
2022/11/11 01:02:22;;;;;;;;;10.67;7.33;;;;;;;;5032210;28;47258;-83
2022/11/11 01:04:47;;;;;;;;;6.00;6.00;;;;;;;;5027380;28;45387;-80
2022/11/11 01:07:12;;;;;;;;;9.67;8.33;;;;;;;;5035416;28;45508;-78
2022/11/11 01:09:37;;;;;;;;;5.00;5.00;;;;;;;;5038750;28;45479;-81
2022/11/11 01:12:03;;;;;;;;;6.33;6.33;;;;;;;;5042112;28;47237;-80
2022/11/11 01:14:29;;;;;;;;;9.00;7.67;;;;;;;;5040214;28;45477;-79
2022/11/11 01:16:54;;;;;;;;;9.00;8.67;;;;;;;;5038223;28;45381;-81
2022/11/11 01:19:20;;;;;;;;;8.67;8.67;;;;;;;;5038202;28;45680;-82
2022/11/11 01:21:46;;;;;;;;;8.33;7.67;;;;;;;;5048742;28;46000;-80
2022/11/11 01:24:11;;;;;;;;;8.00;8.00;;;;;;;;5036567;28;45446;-82
2022/11/11 01:26:37;;;;;;;;;8.67;7.00;;;;;;;;5036361;28;45709;-82
2022/11/11 01:29:02;;;;;;;;;9.33;9.33;;;;;;;;5037550;28;45283;-81
2022/11/11 01:31:28;;;;;;;;;10.33;8.67;;;;;;;;5036828;28;45944;-81
2022/11/11 01:33:53;;;;;;;;;8.00;6.33;;;;;;;;5037723;28;45366;-81
2022/11/11 01:36:20;;;;;;;;;12.67;8.67;;;;;;;;5043985;28;45283;-82
2022/11/11 01:38:48;;;;;;;;;10.67;9.00;;;;;;;;5039297;28;45419;-82
2022/11/11 01:41:33;;;;;;;;;6.33;6.33;;;;;;;;5037719;28;45834;-82
2022/11/11 01:44:11;;;;;;;;;7.33;7.33;;;;;;;;5025764;28;45515;-82
2022/11/11 01:46:39;;;;;;;;;11.00;8.33;;;;;;;;5042320;28;45585;-81
2022/11/11 01:49:19;;;;;;;;;5.00;4.00;;;;;;;;5020135;28;45343;-81
2022/11/11 01:51:48;;;;;;;;;6.67;4.67;;;;;;;;5037731;28;46211;-81
2022/11/11 01:54:17;;;;;;;;;10.00;7.67;;;;;;;;5019704;28;45372;-82
2022/11/11 01:56:46;;;;;;;;;11.00;8.00;;;;;;;;5039283;28;45388;-80
2022/11/11 01:59:13;;;;;;;;;11.33;8.67;;;;;;;;5030303;28;45519;-82
2022/11/11 02:01:39;;;;;;;;;7.00;6.67;;;;;;;;5038274;28;46588;-82
2022/11/11 02:06:51;;;;;;;;;5.33;5.33;;;;;;;;5035955;28;45420;-82
2022/11/11 02:09:17;;;;;;;;;6.67;6.67;;;;;;;;5042320;28;45587;-82
2022/11/11 02:14:36;;;;;;;;;8.00;8.00;;;;;;;;5037922;28;45551;-82
2022/11/11 02:17:19;;;;;;;;;5.67;5.67;;;;;;;;5026158;28;45520;-83
2022/11/11 02:19:58;;;;;;;;;7.67;7.67;;;;;;;;5036620;28;45524;-81
2022/11/11 02:22:35;;;;;;;;;7.00;7.00;;;;;;;;5036099;28;45682;-82
2022/11/11 02:25:02;;;;;;;;;11.00;7.33;;;;;;;;5035575;28;45493;-82
2022/11/11 02:27:29;;;;;;;;;8.33;8.33;;;;;;;;5041650;28;45366;-82
2022/11/11 02:29:57;;;;;;;;;5.67;5.67;;;;;;;;5047936;28;45370;-81
2022/11/11 02:32:22;;;;;;;;;7.00;7.00;;;;;;;;5020911;28;48077;-82
2022/11/11 02:34:47;;;;;;;;;7.00;5.67;;;;;;;;5034328;28;45481;-82
2022/11/11 02:37:19;;;;;;;;;6.33;6.33;;;;;;;;5035708;28;45420;-82
2022/11/11 02:39:46;;;;;;;;;7.00;5.67;;;;;;;;5036209;28;45898;-82
2022/11/11 02:42:13;;;;;;;;;7.67;5.67;;;;;;;;5037735;28;46259;-82
2022/11/11 02:44:38;;;;;;;;;5.33;4.67;;;;;;;;5037304;28;45500;-82
2022/11/11 02:47:04;;;;;;;;;7.67;7.67;;;;;;;;5035895;28;45475;-81
2022/11/11 02:49:29;;;;;;;;;6.00;5.67;;;;;;;;5035976;28;45474;-82
2022/11/11 02:51:54;;;;;;;;;6.33;5.33;;;;;;;;5045217;28;46182;-82
2022/11/11 02:54:20;;;;;;;;;7.00;6.67;;;;;;;;5033446;28;45370;-82
2022/11/11 02:59:29;;;;;;;;;5.33;4.33;;;;;;;;5041471;28;45644;-82
2022/11/11 03:01:54;;;;;;;;;7.00;5.00;;;;;;;;5040406;28;46016;-80
2022/11/11 03:04:20;;;;;;;;;9.33;8.33;;;;;;;;5002353;28;45608;-82
2022/11/11 03:06:45;;;;;;;;;11.67;7.67;;;;;;;;5035466;28;45551;-82
2022/11/11 03:09:10;;;;;;;;;7.33;6.33;;;;;;;;5002189;28;45489;-82
2022/11/11 03:11:37;;;;;;;;;7.67;7.00;;;;;;;;5035462;28;45755;-81
2022/11/11 03:14:03;;;;;;;;;7.00;7.00;;;;;;;;5043291;28;45310;-81
2022/11/11 03:19:12;;;;;;;;;8.67;6.67;;;;;;;;5048056;28;45342;-81
2022/11/11 03:21:37;;;;;;;;;9.33;5.33;;;;;;;;5034179;28;46085;-80
2022/11/11 03:24:03;;;;;;;;;8.00;6.00;;;;;;;;5018362;28;45558;-81
2022/11/11 03:26:28;;;;;;;;;7.00;7.00;;;;;;;;5034897;28;45588;-81
2022/11/11 03:28:53;;;;;;;;;10.33;8.67;;;;;;;;5043066;28;45361;-81
2022/11/11 03:31:19;;;;;;;;;8.33;8.33;;;;;;;;5024424;28;47881;-81
2022/11/11 03:33:44;;;;;;;;;10.33;9.00;;;;;;;;5042498;28;45273;-81
2022/11/11 03:36:10;;;;;;;;;7.67;7.00;;;;;;;;5021059;28;45552;-81
2022/11/11 03:38:35;;;;;;;;;9.00;8.00;;;;;;;;5038484;28;45627;-81
2022/11/11 03:41:00;;;;;;;;;9.67;8.00;;;;;;;;5051952;28;46041;-82
2022/11/11 03:43:28;;;;;;;;;9.33;8.00;;;;;;;;5037842;28;45471;-80
2022/11/11 03:45:54;;;;;;;;;9.33;7.67;;;;;;;;5018849;28;45450;-81
2022/11/11 03:48:20;;;;;;;;;8.67;8.33;;;;;;;;5036448;28;45493;-81
2022/11/11 03:50:46;;;;;;;;;8.00;8.00;;;;;;;;5034666;28;45458;-81
2022/11/11 03:53:13;;;;;;;;;10.00;8.33;;;;;;;;5037751;28;45512;-82
2022/11/11 03:55:38;;;;;;;;;11.67;9.00;;;;;;;;5034939;28;45490;-81
2022/11/11 03:58:04;;;;;;;;;8.33;7.00;;;;;;;;5036912;28;45412;-81
2022/11/11 04:00:29;;;;;;;;;9.00;9.00;;;;;;;;5023561;28;45729;-82
2022/11/11 04:11:14;;;;;;;;;9.67;8.00;;;;;;;;5035053;28;45883;-77
2022/11/11 04:16:25;;;;;;;;;7.00;7.00;;;;;;;;5038038;28;45554;-81
2022/11/11 04:21:44;;;;;;;;;8.00;8.00;;;;;;;;5034783;28;45797;-81
2022/11/11 04:26:55;;;;;;;;;10.33;8.00;;;;;;;;5033080;28;45465;-81
2022/11/11 04:29:29;;;;;;;;;10.00;6.00;;;;;;;;5042358;28;45635;-80
2022/11/11 04:34:53;;;;;;;;;7.67;7.33;;;;;;;;5035044;28;45429;-81
2022/11/11 04:37:19;;;;;;;;;9.00;9.00;;;;;;;;5038462;28;45780;-81
2022/11/11 04:42:29;;;;;;;;;8.33;8.33;;;;;;;;5037170;28;45485;-81
2022/11/11 04:47:51;;;;;;;;;12.00;9.00;;;;;;;;5042540;28;45471;-81
2022/11/11 04:50:16;;;;;;;;;10.00;10.00;;;;;;;;5026723;28;45781;-81
2022/11/11 04:52:42;;;;;;;;;12.67;9.67;;;;;;;;5010879;28;47729;-81
2022/11/11 04:57:51;;;;;;;;;9.00;8.67;;;;;;;;5042337;28;45669;-81
2022/11/11 05:00:17;;;;;;;;;11.00;8.00;;;;;;;;5046755;28;45550;-81
2022/11/11 05:05:26;;;;;;;;;9.00;8.00;;;;;;;;5045490;28;45408;-82
2022/11/11 05:10:36;;;;;;;;;7.33;6.33;;;;;;;;5038011;28;45736;-79
2022/11/11 05:21:26;;;;;;;;;10.33;7.67;;;;;;;;4999878;28;45383;-74
2022/11/11 05:26:36;;;;;;;;;8.33;7.33;;;;;;;;5011564;28;45371;-74
2022/11/11 05:29:02;;;;;;;;;10.33;7.33;;;;;;;;5001158;28;45597;-74
2022/11/11 05:31:28;;;;;;;;;9.67;7.00;;;;;;;;5002087;28;45401;-74
2022/11/11 05:33:53;;;;;;;;;8.33;7.67;;;;;;;;4999002;28;46477;-74
2022/11/11 05:36:19;;;;;;;;;9.00;9.00;;;;;;;;5006631;28;45563;-74
2022/11/11 05:38:44;;;;;;;;;8.00;8.00;;;;;;;;4970599;28;45335;-73
2022/11/11 05:41:09;;;;;;;;;8.67;8.33;;;;;;;;5003683;28;45542;-74
2022/11/11 05:43:34;;;;;;;;;8.00;7.67;;;;;;;;4996588;28;46284;-71
2022/11/11 05:46:00;;;;;;;;;8.33;7.33;;;;;;;;4995906;28;45500;-74
2022/11/11 05:48:25;;;;;;;;;9.67;8.00;;;;;;;;4991513;28;45470;-74
2022/11/11 05:50:50;;;;;;;;;9.33;8.67;;;;;;;;4977417;28;45534;-74
2022/11/11 05:53:15;;;;;;;;;8.67;6.67;;;;;;;;5021471;28;45488;-74
2022/11/11 05:55:41;;;;;;;;;12.33;8.33;;;;;;;;5037031;28;45422;-74
2022/11/11 05:58:06;;;;;;;;;9.33;7.67;;;;;;;;5022292;28;45436;-73
2022/11/11 06:00:31;;;;;;;;;8.33;6.67;;;;;;;;5043437;28;45334;-73
2022/11/11 06:03:04;;;;;;;;;8.00;8.00;;;;;;;;5002125;28;46920;-73
2022/11/11 06:05:30;;;;;;;;;9.67;7.00;;;;;;;;5043917;28;45480;-73
2022/11/11 06:07:55;;;;;;;;;11.50;8.00;;;;;;;;5029436;28;45484;-75
2022/11/11 06:10:29;;;;;;;;;12.33;8.67;;;;;;;;5037979;28;45486;-73
2022/11/11 06:13:09;;;;;;;;;11.00;7.00;;;;;;;;5038288;28;46484;-75
2022/11/11 06:15:35;;;;;;;;;8.67;6.67;;;;;;;;5024297;28;45928;-74
2022/11/11 06:18:00;;;;;;;;;6.00;6.00;;;;;;;;5045442;28;45444;-73
2022/11/11 06:20:26;;;;;;;;;9.33;9.00;;;;;;;;5019434;28;45528;-74
2022/11/11 06:22:57;;;;;;;;;9.67;8.33;;;;;;;;5022751;28;47890;-73
2022/11/11 06:28:07;;;;;;;;;7.67;7.00;;;;;;;;5039148;28;45411;-74
2022/11/11 06:30:32;;;;;;;;;9.33;8.00;;;;;;;;5018661;28;45362;-74
2022/11/11 06:32:57;;;;;;;;;8.00;8.00;;;;;;;;5014325;28;48446;-74
2022/11/11 06:35:22;;;;;;;;;9.00;9.00;;;;;;;;5040103;28;45496;-74
2022/11/11 06:37:47;;;;;;;;;10.00;8.00;;;;;;;;5047796;28;45505;-73
2022/11/11 06:40:13;;;;;;;;;8.00;8.00;;;;;;;;5019357;28;45503;-74
2022/11/11 06:42:38;;;;;;;;;7.00;7.00;;;;;;;;5041455;28;45480;-73
2022/11/11 06:45:04;;;;;;;;;8.67;7.67;;;;;;;;5026696;28;46119;-74
2022/11/11 06:47:29;;;;;;;;;4.33;3.33;;;;;;;;5034692;28;45398;-73
2022/11/11 06:49:55;;;;;;;;;9.00;7.00;;;;;;;;5034221;28;45583;-74
2022/11/11 06:52:20;;;;;;;;;7.67;7.33;;;;;;;;5021116;28;47333;-74
2022/11/11 06:54:45;;;;;;;;;7.00;7.00;;;;;;;;5042263;28;45556;-73
2022/11/11 06:57:10;;;;;;;;;7.33;6.00;;;;;;;;5041498;28;45501;-73
2022/11/11 06:59:35;;;;;;;;;6.00;6.00;;;;;;;;5046544;28;45492;-73
2022/11/11 07:02:00;;;;;;;;;4.67;4.67;;;;;;;;5036306;28;45565;-73
2022/11/11 07:04:26;;;;;;;;;8.00;6.00;;;;;;;;5018502;28;45481;-73
2022/11/11 07:06:51;;;;;;;;;9.33;8.33;;;;;;;;5044605;28;45524;-74
2022/11/11 07:09:16;;;;;;;;;4.67;4.67;;;;;;;;5046049;28;45448;-74
2022/11/11 07:11:41;;;;;;;;;5.67;5.67;;;;;;;;5023288;28;45373;-73
2022/11/11 07:14:07;;;;;;;;;8.33;6.00;;;;;;;;5030767;28;45684;-74
2022/11/11 07:16:32;;;;;;;;;6.00;5.00;;;;;;;;5044341;28;45278;-73
2022/11/11 07:18:57;;;;;;;;;8.67;7.67;;;;;;;;5057720;28;45394;-73
2022/11/11 07:21:22;;;;;;;;;5.33;4.33;;;;;;;;5045058;28;45644;-73
2022/11/11 07:23:47;;;;;;;;;7.33;4.67;;;;;;;;5045036;28;45402;-74
2022/11/11 07:26:13;;;;;;;;;7.00;6.00;;;;;;;;5042911;28;45733;-73
2022/11/11 07:28:38;;;;;;;;;4.00;4.00;;;;;;;;5025986;28;45610;-73
2022/11/11 07:31:03;;;;;;;;;5.50;5.00;;;;;;;;5045097;28;46031;-73
2022/11/11 07:33:28;;;;;;;;;5.33;5.33;;;;;;;;5017098;28;45555;-73
2022/11/11 07:35:53;;;;;;;;;7.67;5.00;;;;;;;;5054363;28;45542;-73
2022/11/11 07:38:19;;;;;;;;;6.00;6.00;;;;;;;;5039410;28;45581;-73
2022/11/11 07:40:44;;;;;;;;;7.33;7.00;;;;;;;;5036238;28;46113;-73
2022/11/11 07:43:09;;;;;;;;;7.33;5.67;;;;;;;;5034620;28;45524;-73
2022/11/11 07:45:34;;;;;;;;;5.33;5.33;;;;;;;;5034743;28;46063;-73
2022/11/11 07:47:59;;;;;;;;;5.67;5.67;;;;;;;;5020295;28;45521;-74
2022/11/11 07:50:25;;;;;;;;;5.00;4.67;;;;;;;;5036295;28;46367;-75
2022/11/11 07:52:50;;;;;;;;;6.00;6.00;;;;;;;;5042112;28;45571;-74
2022/11/11 07:55:15;;;;;;;;;6.33;6.00;;;;;;;;5038665;28;45529;-74
2022/11/11 07:57:40;;;;;;;;;5.00;5.00;;;;;;;;5036992;28;45381;-74
2022/11/11 08:00:06;;;;;;;;;8.33;4.67;;;;;;;;5041170;28;46582;-74
2022/11/11 08:02:31;;;;;;;;;7.00;5.67;;;;;;;;5038803;28;45409;-74
2022/11/11 08:04:56;;;;;;;;;4.33;4.33;;;;;;;;5033997;28;45326;-73
2022/11/11 08:07:22;;;;;;;;;6.00;5.33;;;;;;;;5048411;28;45402;-74
2022/11/11 08:09:47;;;;;;;;;8.00;5.00;;;;;;;;5033435;28;45500;-74
2022/11/11 08:14:56;;;;;;;;;9.33;7.33;;;;;;;;5029113;28;45430;-81
2022/11/11 08:17:21;;;;;;;;;6.00;6.00;;;;;;;;5045735;28;45501;-81
2022/11/11 08:19:47;;;;;;;;;6.00;6.00;;;;;;;;5043903;28;46572;-81
2022/11/11 08:22:12;;;;;;;;;6.00;6.00;;;;;;;;5050953;28;46054;-81
2022/11/11 08:24:37;;;;;;;;;7.33;6.33;;;;;;;;5046983;28;45799;-81
2022/11/11 08:27:02;;;;;;;;;8.00;6.00;;;;;;;;5052600;28;45400;-81
2022/11/11 08:29:27;;;;;;;;;7.67;7.67;;;;;;;;5044060;28;46175;-81
2022/11/11 08:31:53;;;;;;;;;6.67;5.67;;;;;;;;5037247;28;45847;-80
2022/11/11 08:34:19;;;;;;;;;6.33;6.33;;;;;;;;5038578;28;45442;-80
2022/11/11 08:36:44;;;;;;;;;10.00;9.00;;;;;;;;5041995;28;45443;-80
2022/11/11 08:39:10;;;;;;;;;10.67;7.00;;;;;;;;5021734;28;47845;-80
2022/11/11 08:41:36;;;;;;;;;8.33;7.67;;;;;;;;5025198;28;45581;-80
2022/11/11 08:44:01;;;;;;;;;6.67;5.67;;;;;;;;5042395;28;45416;-80
2022/11/11 08:46:26;;;;;;;;;9.67;7.67;;;;;;;;5023701;28;45939;-80
2022/11/11 08:48:52;;;;;;;;;7.33;6.33;;;;;;;;5071660;28;48062;-80
2022/11/11 08:51:17;;;;;;;;;10.00;9.33;;;;;;;;5022683;28;45547;-81
2022/11/11 08:53:43;;;;;;;;;11.67;9.33;;;;;;;;5021260;28;45485;-81
2022/11/11 08:56:08;;;;;;;;;8.67;8.67;;;;;;;;5050524;28;45507;-81
2022/11/11 08:58:33;;;;;;;;;9.33;9.33;;;;;;;;5025488;28;48245;-81
2022/11/11 09:01:00;;;;;;;;;10.33;9.00;;;;;;;;5044698;28;45388;-81
2022/11/11 09:03:25;;;;;;;;;10.00;8.67;;;;;;;;5045169;28;45553;-81
2022/11/11 09:05:51;;;;;;;;;10.33;7.67;;;;;;;;5042481;28;45481;-77
2022/11/11 09:08:16;;;;;;;;;8.67;8.67;;;;;;;;5047200;28;46356;-78
2022/11/11 09:10:41;;;;;;;;;7.67;7.67;;;;;;;;5005903;28;46341;-82
2022/11/11 09:13:07;;;;;;;;;8.33;5.67;;;;;;;;5029433;28;45566;-80
2022/11/11 09:15:32;;;;;;;;;8.00;7.00;;;;;;;;5029602;28;45480;-78
2022/11/11 09:17:58;;;;;;;;;6.00;6.00;;;;;;;;5043546;28;45397;-78
2022/11/11 09:20:23;;;;;;;;;7.00;6.33;;;;;;;;5034043;28;45770;-78
2022/11/11 09:22:48;;;;;;;;;9.67;7.67;;;;;;;;5042714;28;45709;-77
2022/11/11 09:25:14;;;;;;;;;10.00;8.00;;;;;;;;5023642;28;46902;-78
2022/11/11 09:27:40;;;;;;;;;11.00;10.00;;;;;;;;5040191;28;45849;-77
2022/11/11 09:30:06;;;;;;;;;14.67;9.33;;;;;;;;5037645;28;45375;-77
2022/11/11 09:32:31;;;;;;;;;13.00;10.00;;;;;;;;5037209;28;45524;-78
2022/11/11 09:34:57;;;;;;;;;11.67;10.00;;;;;;;;5043429;28;45485;-78
2022/11/11 09:37:22;;;;;;;;;12.00;9.00;;;;;;;;5029705;28;46654;-77
2022/11/11 09:39:47;;;;;;;;;9.67;9.67;;;;;;;;5018083;28;45411;-76
2022/11/11 09:42:18;;;;;;;;;15.33;12.67;;;;;;;;5041743;28;45485;-77
2022/11/11 09:45:01;;;;;;;;;10.00;10.00;;;;;;;;5033287;28;45461;-76
2022/11/11 09:47:46;;;;;;;;;12.67;12.67;;;;;;;;5023885;28;45572;-78
2022/11/11 09:50:14;;;;;;;;;9.33;8.33;;;;;;;;5027764;28;45467;-74
2022/11/11 09:52:40;;;;;;;;;10.00;9.00;;;;;;;;5025771;28;45780;-81
2022/11/11 09:55:14;;;;;;;;;11.00;11.00;;;;;;;;5025001;28;45552;-83
2022/11/11 09:57:42;;;;;;;;;8.00;8.00;;;;;;;;5027330;28;45822;-74
2022/11/11 10:00:19;;;;;;;;;5.67;5.67;;;;;;;;5039783;28;45503;-76
2022/11/11 10:02:50;;;;;;;;;7.00;6.67;;;;;;;;5036377;28;45558;-80
2022/11/11 10:05:18;;;;;;;;;12.67;8.00;;;;;;;;5044886;28;45377;-75
2022/11/11 10:07:43;;;;;;;;;7.00;5.67;;;;;;;;5032935;28;46264;-74
2022/11/11 10:10:27;;;;;;;;;7.00;5.00;;;;;;;;5045357;28;45389;-76
2022/11/11 10:12:54;;;;;;;;;7.67;7.33;;;;;;;;5043116;28;45608;-77
2022/11/11 10:15:21;;;;;;;;;7.00;7.00;;;;;;;;5034784;28;45396;-75
2022/11/11 10:18:10;;;;;;;;;7.67;5.67;;;;;;;;5035187;28;45716;-75
2022/11/11 10:20:41;;;;;;;;;7.67;6.00;;;;;;;;5024505;28;45567;-74
2022/11/11 10:23:17;;;;;;;;;5.00;4.00;;;;;;;;5018176;28;45576;-75
2022/11/11 10:25:53;;;;;;;;;7.00;7.00;;;;;;;;5018122;28;45579;-75
2022/11/11 10:28:19;;;;;;;;;10.00;10.00;;;;;;;;5024260;28;45415;-76
2022/11/11 10:30:45;;;;;;;;;9.33;9.33;;;;;;;;5030232;28;45653;-78
2022/11/11 10:33:14;;;;;;;;;9.67;9.67;;;;;;;;5013485;28;45374;-78
2022/11/11 10:35:40;;;;;;;;;8.00;8.00;;;;;;;;5022276;28;45816;-80
2022/11/11 10:38:09;;;;;;;;;11.33;11.33;;;;;;;;5034977;28;46403;-76
2022/11/11 10:40:38;;;;;;;;;9.33;8.67;;;;;;;;5021646;28;45596;-73
2022/11/11 10:43:03;;;;;;;;;11.33;8.67;;;;;;;;5027574;28;45479;-76
2022/11/11 10:45:34;;;;;;;;;9.00;9.00;;;;;;;;5023835;28;45477;-77
2022/11/11 10:48:01;;;;;;;;;11.33;10.33;;;;;;;;5036866;28;46995;-77
2022/11/11 10:50:36;;;;;;;;;11.33;10.00;;;;;;;;5021768;28;45411;-76
2022/11/11 10:53:08;;;;;;;;;9.00;9.00;;;;;;;;5030484;28;46667;-83
2022/11/11 10:55:46;;;;;;;;;7.67;6.67;;;;;;;;5025835;28;45564;-85
2022/11/11 10:58:26;;;;;;;;;8.67;8.67;;;;;;;;5030378;28;49038;-77
2022/11/11 11:00:53;;;;;;;;;8.67;8.67;;;;;;;;5024423;28;45480;-85
2022/11/11 11:03:26;;;;;;;;;7.67;5.67;;;;;;;;5036512;28;45545;-81
2022/11/11 11:05:55;;;;;;;;;9.33;8.00;;;;;;;;5030029;28;45530;-82
2022/11/11 11:08:22;;;;;;;;;11.67;9.00;;;;;;;;5026838;28;46284;-82
2022/11/11 11:10:50;;;;;;;;;9.67;9.67;;;;;;;;5009395;28;45685;-82
2022/11/11 11:13:39;;;;;;;;;15.67;15.67;;;;;;;;5020117;28;45776;-82
2022/11/11 11:16:10;;;;;;;;;14.33;12.00;;;;;;;;5003417;28;45587;-82
2022/11/11 11:18:35;;;;;;;;;14.33;12.33;;;;;;;;5039087;28;45644;-83
2022/11/11 11:21:01;;;;;;;;;16.33;13.00;;;;;;;;5036395;28;45773;-82
2022/11/11 11:23:38;;;;;;;;;8.67;7.33;;;;;;;;5032494;28;45643;-81
2022/11/11 11:26:04;;;;;;;;;10.00;10.00;;;;;;;;5045926;28;45778;-81
2022/11/11 11:28:29;;;;;;;;;9.33;9.33;;;;;;;;5039857;28;45488;-82
2022/11/11 11:31:12;;;;;;;;;7.33;7.00;;;;;;;;5042903;28;45832;-82
2022/11/11 11:33:49;;;;;;;;;9.00;9.00;;;;;;;;5040002;28;45490;-80
2022/11/11 11:36:15;;;;;;;;;9.67;9.67;;;;;;;;5035746;28;45409;-81
2022/11/11 11:38:45;;;;;;;;;14.67;10.67;;;;;;;;5036334;28;45696;-81
2022/11/11 11:41:10;;;;;;;;;10.00;10.00;;;;;;;;5032400;28;47029;-82
2022/11/11 11:43:36;;;;;;;;;8.67;8.67;;;;;;;;5034424;28;45609;-82
2022/11/11 11:46:04;;;;;;;;;5.67;5.67;;;;;;;;5036630;28;45681;-83
2022/11/11 11:48:47;;;;;;;;;10.00;10.00;;;;;;;;5020929;28;47186;-83
2022/11/11 11:51:31;;;;;;;;;9.67;8.67;;;;;;;;5046680;28;45479;-83
2022/11/11 11:54:14;;;;;;;;;7.67;7.67;;;;;;;;5044253;28;45526;-83
2022/11/11 11:56:41;;;;;;;;;10.33;9.33;;;;;;;;5044241;28;45425;-83
2022/11/11 11:59:18;;;;;;;;;21.67;17.67;;;;;;;;5046171;28;48305;-83
2022/11/11 12:01:53;;;;;;;;;10.00;9.00;;;;;;;;5024469;28;45501;-83
2022/11/11 12:04:24;;;;;;;;;12.67;9.00;;;;;;;;5041984;28;45492;-83
2022/11/11 12:06:58;;;;;;;;;7.33;7.33;;;;;;;;5044720;28;45491;-83
2022/11/11 12:09:30;;;;;;;;;7.33;6.00;;;;;;;;5039149;28;46540;-83
2022/11/11 12:11:59;;;;;;;;;9.00;9.00;;;;;;;;5026499;28;45548;-83
2022/11/11 12:14:37;;;;;;;;;11.67;10.33;;;;;;;;5024697;28;45592;-81
2022/11/11 12:17:14;;;;;;;;;10.00;8.67;;;;;;;;5038905;28;45335;-83
2022/11/11 12:19:49;;;;;;;;;7.67;7.67;;;;;;;;5031781;28;47115;-87
2022/11/11 12:22:29;;;;;;;;;10.00;9.00;;;;;;;;5032963;28;45507;-82
2022/11/11 12:24:57;;;;;;;;;10.67;9.33;;;;;;;;5018987;28;45621;-77
2022/11/11 12:27:25;;;;;;;;;19.00;15.33;;;;;;;;5035899;28;45419;-76
2022/11/11 12:29:51;;;;;;;;;19.33;18.00;;;;;;;;5026516;28;47046;-76
2022/11/11 12:32:22;;;;;;;;;14.00;9.67;;;;;;;;5040833;28;45399;-79
2022/11/11 12:34:47;;;;;;;;;11.67;9.00;;;;;;;;5016530;28;45662;-78
2022/11/11 12:37:12;;;;;;;;;9.67;9.67;;;;;;;;5041610;28;45576;-79
2022/11/11 12:39:50;;;;;;;;;11.33;10.33;;;;;;;;5037746;28;47153;-81
2022/11/11 12:42:15;;;;;;;;;9.67;9.67;;;;;;;;5005471;28;45407;-77
2022/11/11 12:44:48;;;;;;;;;17.67;15.67;;;;;;;;5015563;28;45465;-77
2022/11/11 12:47:22;;;;;;;;;10.67;10.33;;;;;;;;5019024;28;45469;-79
2022/11/11 12:49:52;;;;;;;;;13.67;12.00;;;;;;;;5013423;28;45537;-83
2022/11/11 12:52:32;;;;;;;;;15.67;13.33;;;;;;;;5019215;28;46405;-82
2022/11/11 12:55:08;;;;;;;;;11.00;9.67;;;;;;;;5019167;28;45567;-80
2022/11/11 12:57:37;;;;;;;;;10.33;9.67;;;;;;;;5020540;28;45527;-72
2022/11/11 13:00:08;;;;;;;;;11.67;10.67;;;;;;;;5017105;28;46346;-73
2022/11/11 13:02:36;;;;;;;;;12.00;9.00;;;;;;;;5012850;28;45820;-74
2022/11/11 13:05:15;;;;;;;;;9.33;9.33;;;;;;;;5024002;28;45437;-74
2022/11/11 13:08:01;;;;;;;;;13.33;9.67;;;;;;;;5018418;28;46411;-74
2022/11/11 13:10:33;;;;;;;;;11.33;10.00;;;;;;;;5014801;28;45516;-72
2022/11/11 13:13:14;;;;;;;;;10.33;9.00;;;;;;;;5017969;28;46063;-79
2022/11/11 13:15:39;;;;;;;;;13.67;10.33;;;;;;;;5013283;28;45525;-76
2022/11/11 13:18:14;;;;;;;;;10.00;10.00;;;;;;;;5028650;28;45837;-75
2022/11/11 13:20:44;;;;;;;;;24.00;21.67;;;;;;;;5012916;28;46336;-77
2022/11/11 13:23:10;;;;;;;;;13.00;9.33;;;;;;;;5015021;28;45572;-78
2022/11/11 13:25:37;;;;;;;;;16.67;13.33;;;;;;;;5012581;28;45982;-76
2022/11/11 13:28:06;;;;;;;;;12.00;10.67;;;;;;;;5019472;28;45566;-77
2022/11/11 13:30:50;;;;;;;;;16.33;11.33;;;;;;;;5016288;28;46085;-75
2022/11/11 13:33:20;;;;;;;;;10.67;10.67;;;;;;;;5018041;28;45543;-77
2022/11/11 13:35:54;;;;;;;;;12.67;11.67;;;;;;;;5024357;28;45623;-80
2022/11/11 13:38:25;;;;;;;;;11.33;10.00;;;;;;;;5026392;28;45476;-80
2022/11/11 13:40:53;;;;;;;;;11.00;11.00;;;;;;;;5039281;28;47279;-79
2022/11/11 13:43:20;;;;;;;;;9.67;7.67;;;;;;;;5040309;28;45505;-82
2022/11/11 13:45:53;;;;;;;;;12.00;11.00;;;;;;;;5041429;28;45553;-89
2022/11/11 13:48:30;;;;;;;;;17.33;12.67;;;;;;;;5038902;28;45453;-85
2022/11/11 13:51:13;;;;;;;;;10.00;9.00;;;;;;;;5037196;28;46223;-78
2022/11/11 13:53:39;;;;;;;;;9.67;8.67;;;;;;;;5036141;28;45600;-76
2022/11/11 13:56:06;;;;;;;;;11.67;10.33;;;;;;;;5038379;28;45523;-74
2022/11/11 13:58:34;;;;;;;;;9.33;9.33;;;;;;;;5032191;28;46640;-76
2022/11/11 14:01:01;;;;;;;;;9.67;9.67;;;;;;;;5004249;28;45565;-80
2022/11/11 14:03:28;;;;;;;;;13.33;10.00;;;;;;;;5042124;28;45428;-76
2022/11/11 14:06:11;;;;;;;;;10.00;10.00;;;;;;;;5034303;28;45493;-82
2022/11/11 14:08:46;;;;;;;;;12.33;10.00;;;;;;;;5037479;28;45449;-84
2022/11/11 14:11:23;;;;;;;;;14.00;11.67;;;;;;;;5016907;28;47570;-78
2022/11/11 14:13:49;;;;;;;;;10.67;9.67;;;;;;;;5014327;28;45536;-87
2022/11/11 14:16:37;;;;;;;;;9.33;7.67;;;;;;;;5024813;28;45851;-79
2022/11/11 14:19:17;;;;;;;;;9.33;9.33;;;;;;;;5040953;28;45745;-83
2022/11/11 14:21:46;;;;;;;;;10.00;9.00;;;;;;;;5032207;28;45504;-78
2022/11/11 14:24:21;;;;;;;;;12.00;11.00;;;;;;;;5031162;28;45548;-82
2022/11/11 14:26:55;;;;;;;;;11.67;9.00;;;;;;;;5035052;28;45496;-79
2022/11/11 14:29:25;;;;;;;;;10.33;9.33;;;;;;;;5010509;28;45483;-79
2022/11/11 14:32:03;;;;;;;;;9.33;9.33;;;;;;;;5023269;28;46208;-81
2022/11/11 14:34:48;;;;;;;;;11.67;9.33;;;;;;;;5036755;28;45507;-87
2022/11/11 14:37:19;;;;;;;;;10.67;9.00;;;;;;;;5037930;28;45706;-81
2022/11/11 14:39:52;;;;;;;;;6.33;6.33;;;;;;;;5042752;28;45507;-80
2022/11/11 14:42:32;;;;;;;;;10.33;9.67;;;;;;;;5036053;28;46771;-81
2022/11/11 14:44:57;;;;;;;;;10.00;10.00;;;;;;;;5030051;28;45770;-78
2022/11/11 14:47:23;;;;;;;;;3.67;3.67;;;;;;;;5037930;28;45572;-78
2022/11/11 14:49:53;;;;;;;;;9.00;9.00;;;;;;;;5041906;28;45634;-77
2022/11/11 14:52:25;;;;;;;;;8.67;8.00;;;;;;;;5042505;28;46115;-75
2022/11/11 14:54:53;;;;;;;;;10.67;9.67;;;;;;;;5030657;28;45511;-77
2022/11/11 14:57:20;;;;;;;;;9.00;7.33;;;;;;;;5031677;28;45784;-82
2022/11/11 14:59:46;;;;;;;;;11.33;9.67;;;;;;;;5026408;28;45676;-77
2022/11/11 15:02:17;;;;;;;;;7.67;7.67;;;;;;;;5026322;28;46541;-80
2022/11/11 15:04:42;;;;;;;;;9.67;9.33;;;;;;;;5009884;28;46598;-77
2022/11/11 15:07:20;;;;;;;;;10.33;9.67;;;;;;;;5032392;28;45651;-77
2022/11/11 15:09:52;;;;;;;;;11.00;9.67;;;;;;;;5030321;28;45812;-78
2022/11/11 15:12:32;;;;;;;;;10.33;9.67;;;;;;;;5033364;28;46027;-78
2022/11/11 15:14:57;;;;;;;;;7.00;6.00;;;;;;;;5035426;28;45491;-75
2022/11/11 15:17:38;;;;;;;;;14.00;9.00;;;;;;;;5052503;28;45622;-75
2022/11/11 15:20:26;;;;;;;;;13.67;11.33;;;;;;;;5041031;28;45526;-76
2022/11/11 15:23:13;;;;;;;;;15.00;11.33;;;;;;;;5007661;28;48436;-79
2022/11/11 15:25:51;;;;;;;;;14.33;10.67;;;;;;;;5031161;28;45781;-76
2022/11/11 15:28:16;;;;;;;;;19.33;15.00;;;;;;;;5041289;28;45672;-78
2022/11/11 15:30:57;;;;;;;;;12.67;12.67;;;;;;;;5023056;28;45445;-80
2022/11/11 15:33:27;;;;;;;;;18.33;11.33;;;;;;;;5042716;28;47267;-85
2022/11/11 15:36:14;;;;;;;;;13.33;11.33;;;;;;;;5036570;28;45636;-80
2022/11/11 15:38:39;;;;;;;;;10.67;10.33;;;;;;;;5037032;28;46901;-83
2022/11/11 15:41:19;;;;;;;;;13.00;11.00;;;;;;;;5034229;28;46733;-80
2022/11/11 15:43:45;;;;;;;;;10.67;10.67;;;;;;;;5037630;28;46097;-76
2022/11/11 15:46:19;;;;;;;;;16.33;14.67;;;;;;;;5042598;28;45828;-75
2022/11/11 15:48:45;;;;;;;;;14.67;13.33;;;;;;;;5029221;28;45778;-76
2022/11/11 15:51:14;;;;;;;;;10.00;10.00;;;;;;;;5039202;28;45503;-77
2022/11/11 15:53:40;;;;;;;;;16.67;13.33;;;;;;;;5037171;28;45714;-76
2022/11/11 15:56:05;;;;;;;;;11.00;7.67;;;;;;;;5040340;28;45358;-82
2022/11/11 15:58:31;;;;;;;;;10.33;7.67;;;;;;;;5041008;28;45417;-81
2022/11/11 16:00:57;;;;;;;;;16.00;13.00;;;;;;;;5038123;28;45486;-78